createdAt,value
2019-01-27T00:01:33.441Z,81.80
2019-01-27T00:04:00.330Z,81.90
2019-01-27T00:06:26.769Z,81.80
2019-01-27T00:08:53.059Z,82.10
2019-01-27T00:11:19.479Z,82.20
2019-01-27T00:13:45.781Z,82.20
2019-01-27T00:16:12.196Z,82.30
2019-01-27T00:18:38.738Z,83.20
2019-01-27T00:21:05.144Z,82.70
2019-01-27T00:23:31.457Z,82.70
2019-01-27T00:25:57.895Z,82.90
2019-01-27T00:28:24.424Z,83.00
2019-01-27T00:30:50.969Z,83.00
2019-01-27T00:33:17.369Z,83.10
2019-01-27T00:35:43.681Z,83.00
2019-01-27T00:38:10.204Z,83.10
2019-01-27T00:40:36.824Z,83.00
2019-01-27T00:43:03.229Z,83.10
2019-01-27T00:45:29.781Z,83.10
2019-01-27T00:47:56.180Z,83.30
2019-01-27T00:50:22.611Z,83.20
2019-01-27T00:52:48.931Z,83.10
2019-01-27T00:55:20.729Z,83.10
2019-01-27T00:57:47.251Z,83.00
2019-01-27T01:00:17.458Z,83.10
2019-01-27T01:02:43.756Z,83.10
2019-01-27T01:05:10.189Z,83.00
2019-01-27T01:07:36.621Z,82.90
2019-01-27T01:10:07.528Z,83.00
2019-01-27T01:12:33.936Z,83.00
2019-01-27T01:15:00.334Z,82.90
2019-01-27T01:17:26.757Z,83.20
2019-01-27T01:19:53.164Z,83.00
2019-01-27T01:22:19.709Z,83.20
2019-01-27T01:24:46.113Z,83.00
2019-01-27T01:27:12.554Z,83.50
2019-01-27T01:29:38.973Z,83.30
2019-01-27T01:32:05.482Z,83.40
2019-01-27T01:34:31.809Z,83.40
2019-01-27T01:36:58.236Z,83.80
2019-01-27T01:39:24.848Z,84.00
2019-01-27T01:41:52.431Z,84.00
2019-01-27T01:44:18.837Z,84.00
2019-01-27T01:46:45.467Z,84.00
2019-01-27T01:49:11.856Z,83.90
2019-01-27T01:51:38.625Z,83.80
2019-01-27T01:54:04.933Z,84.00
2019-01-27T01:56:31.570Z,84.20
2019-01-27T01:58:58.245Z,83.90
2019-01-27T02:01:24.545Z,83.70
2019-01-27T02:03:51.160Z,83.90
2019-01-27T02:06:17.976Z,84.80
2019-01-27T02:08:44.624Z,83.90
2019-01-27T02:11:11.161Z,84.00
2019-01-27T02:13:37.581Z,84.00
2019-01-27T02:16:04.202Z,84.30
2019-01-27T02:18:30.730Z,84.30
2019-01-27T02:20:57.344Z,84.10
2019-01-27T02:23:23.676Z,84.00
2019-01-27T02:25:49.976Z,84.20
2019-01-27T02:28:16.481Z,84.30
2019-01-27T02:30:42.880Z,84.10
2019-01-27T02:33:09.276Z,84.00
2019-01-27T02:35:35.835Z,84.10
2019-01-27T02:38:02.220Z,84.30
2019-01-27T02:40:28.522Z,84.00
2019-01-27T02:42:55.037Z,83.90
2019-01-27T02:45:21.438Z,84.20
2019-01-27T02:47:47.984Z,84.40
2019-01-27T02:50:14.479Z,84.20
2019-01-27T02:52:41.197Z,84.80
2019-01-27T02:55:08.333Z,84.10
2019-01-27T02:57:34.855Z,84.00
2019-01-27T03:00:03.583Z,84.00
2019-01-27T03:02:29.923Z,84.00
2019-01-27T03:04:58.126Z,84.10
2019-01-27T03:07:26.454Z,84.00
2019-01-27T03:09:52.762Z,84.20
2019-01-27T03:12:19.037Z,84.20
2019-01-27T03:14:45.847Z,84.50
2019-01-27T03:17:14.081Z,84.30
2019-01-27T03:19:41.089Z,84.20
2019-01-27T03:22:07.391Z,84.30
2019-01-27T03:24:33.909Z,83.80
2019-01-27T03:27:00.204Z,83.90
2019-01-27T03:29:26.817Z,84.30
2019-01-27T03:31:53.218Z,83.80
2019-01-27T03:34:19.729Z,83.90
2019-01-27T03:36:46.134Z,83.90
2019-01-27T03:39:12.570Z,83.70
2019-01-27T03:41:39.096Z,83.80
2019-01-27T03:44:05.638Z,83.70
2019-01-27T03:46:32.191Z,84.50
2019-01-27T03:48:58.594Z,83.80
2019-01-27T03:51:24.898Z,83.90
2019-01-27T03:53:51.425Z,83.80
2019-01-27T03:56:17.935Z,83.90
2019-01-27T03:58:44.253Z,84.20
2019-01-27T04:01:10.888Z,84.10
2019-01-27T04:03:37.530Z,84.00
2019-01-27T04:06:04.165Z,84.20
2019-01-27T04:08:30.785Z,83.80
2019-01-27T04:10:57.324Z,83.20
2019-01-27T04:13:23.621Z,83.80
2019-01-27T04:15:50.026Z,83.90
2019-01-27T04:18:16.461Z,84.00
2019-01-27T04:20:42.980Z,83.70
2019-01-27T04:23:09.414Z,83.80
2019-01-27T04:25:35.725Z,83.80
2019-01-27T04:28:02.457Z,83.90
2019-01-27T04:30:33.934Z,84.10
2019-01-27T04:33:00.437Z,83.80
2019-01-27T04:35:27.068Z,84.20
2019-01-27T04:37:53.548Z,84.00
2019-01-27T04:40:21.572Z,84.20
2019-01-27T04:42:47.983Z,84.20
2019-01-27T04:45:17.281Z,84.20
2019-01-27T04:47:43.721Z,85.00
2019-01-27T04:50:12.342Z,85.80
2019-01-27T04:52:38.999Z,85.30
2019-01-27T04:55:14.443Z,85.50
2019-01-27T04:57:45.288Z,85.20
2019-01-27T05:00:27.578Z,81.20
2019-01-27T05:02:55.788Z,68.30
2019-01-27T05:05:22.434Z,70.80
2019-01-27T05:07:48.943Z,68.10
2019-01-27T05:10:15.288Z,67.70
2019-01-27T05:12:41.588Z,71.90
2019-01-27T05:15:11.417Z,73.60
2019-01-27T05:17:37.852Z,74.60
2019-01-27T05:20:07.664Z,75.40
2019-01-27T05:22:34.081Z,76.20
2019-01-27T05:25:00.497Z,77.30
2019-01-27T05:27:27.090Z,77.80
2019-01-27T05:29:53.730Z,74.00
2019-01-27T05:32:20.129Z,75.10
2019-01-27T05:34:46.797Z,77.10
2019-01-27T05:37:13.096Z,77.90
2019-01-27T05:39:39.602Z,78.60
2019-01-27T05:42:06.027Z,78.80
2019-01-27T05:44:32.430Z,78.90
2019-01-27T05:46:58.932Z,79.10
2019-01-27T05:49:25.802Z,79.10
2019-01-27T05:51:52.106Z,79.20
2019-01-27T05:54:20.179Z,79.90
2019-01-27T05:56:46.549Z,80.30
2019-01-27T05:59:13.005Z,80.30
2019-01-27T06:01:39.305Z,80.50
2019-01-27T06:04:06.032Z,80.80
2019-01-27T06:06:32.445Z,81.10
2019-01-27T06:08:58.740Z,81.30
2019-01-27T06:11:25.266Z,81.50
2019-01-27T06:13:51.684Z,81.70
2019-01-27T06:16:18.201Z,81.90
2019-01-27T06:18:44.509Z,81.70
2019-01-27T06:21:10.916Z,81.50
2019-01-27T06:23:37.453Z,82.10
2019-01-27T06:26:04.061Z,81.50
2019-01-27T06:28:30.596Z,82.50
2019-01-27T06:30:57.009Z,81.60
2019-01-27T06:33:25.577Z,81.90
2019-01-27T06:35:51.880Z,81.90
2019-01-27T06:38:18.646Z,82.10
2019-01-27T06:40:45.286Z,82.10
2019-01-27T06:43:11.865Z,82.90
2019-01-27T06:45:39.034Z,82.20
2019-01-27T06:48:05.436Z,82.10
2019-01-27T06:50:31.781Z,82.40
2019-01-27T06:52:58.085Z,82.30
2019-01-27T06:55:24.561Z,82.20
2019-01-27T06:57:51.015Z,82.30
2019-01-27T07:00:26.645Z,82.30
2019-01-27T07:02:57.068Z,82.40
2019-01-27T07:05:37.259Z,82.40
2019-01-27T07:08:08.426Z,82.60
2019-01-27T07:10:39.433Z,82.50
2019-01-27T07:13:13.518Z,82.90
2019-01-27T07:15:44.429Z,82.50
2019-01-27T07:18:17.361Z,82.30
2019-01-27T07:20:45.811Z,82.30
2019-01-27T07:23:17.281Z,82.40
2019-01-27T07:25:51.195Z,82.50
2019-01-27T07:28:24.937Z,82.40
2019-01-27T07:30:53.693Z,82.40
2019-01-27T07:33:40.226Z,81.90
2019-01-27T07:36:08.465Z,82.10
2019-01-27T07:38:45.789Z,82.10
2019-01-27T07:41:28.985Z,81.90
2019-01-27T07:44:00.042Z,81.90
2019-01-27T07:46:30.867Z,82.90
2019-01-27T07:49:07.858Z,82.00
2019-01-27T07:51:52.381Z,81.70
2019-01-27T07:54:20.716Z,81.90
2019-01-27T07:56:51.625Z,81.90
2019-01-27T07:59:26.123Z,81.10
2019-01-27T08:01:54.746Z,81.60
2019-01-27T08:04:25.652Z,81.80
2019-01-27T08:06:59.913Z,82.00
2019-01-27T08:09:30.920Z,81.60
2019-01-27T08:12:05.277Z,81.80
2019-01-27T08:14:39.339Z,81.50
2019-01-27T08:17:07.680Z,81.30
2019-01-27T08:19:38.828Z,81.30
2019-01-27T08:22:13.109Z,81.20
2019-01-27T08:24:41.412Z,81.20
2019-01-27T08:27:18.659Z,81.10
2019-01-27T08:29:46.893Z,80.80
2019-01-27T08:32:24.461Z,80.80
2019-01-27T08:34:58.751Z,80.70
2019-01-27T08:37:27.228Z,80.70
2019-01-27T08:40:01.506Z,80.60
2019-01-27T08:42:36.171Z,80.30
2019-01-27T08:45:07.559Z,80.40
2019-01-27T08:47:33.985Z,81.60
2019-01-27T08:50:00.520Z,81.00
2019-01-27T08:52:52.009Z,80.70
2019-01-27T08:55:30.211Z,80.70
2019-01-27T08:58:01.690Z,80.80
2019-01-27T09:00:39.922Z,80.40
2019-01-27T09:03:20.748Z,80.80
2019-01-27T09:06:14.975Z,80.30
2019-01-27T09:08:55.535Z,80.20
2019-01-27T09:11:48.447Z,80.20
2019-01-27T09:14:36.903Z,79.90
2019-01-27T09:17:28.866Z,80.10
2019-01-27T09:20:10.538Z,80.70
2019-01-27T09:22:57.954Z,80.90
2019-01-27T09:25:29.423Z,81.00
2019-01-27T09:28:16.590Z,81.00
2019-01-27T09:30:51.867Z,81.20
2019-01-27T09:33:47.541Z,80.90
2019-01-27T09:36:25.204Z,80.90
2019-01-27T09:39:19.043Z,80.80
2019-01-27T09:41:58.167Z,80.70
2019-01-27T09:44:49.537Z,80.70
2019-01-27T09:47:29.039Z,80.70
2019-01-27T09:50:15.683Z,80.40
2019-01-27T09:53:04.563Z,80.50
2019-01-27T09:55:48.041Z,80.50
2019-01-27T09:58:29.320Z,80.40
2019-01-27T10:01:13.670Z,80.50
2019-01-27T10:04:04.646Z,80.50
2019-01-27T10:06:39.515Z,80.30
2019-01-27T10:09:22.033Z,80.30
2019-01-27T10:11:56.422Z,80.30
2019-01-27T10:14:36.847Z,80.40
2019-01-27T10:17:19.684Z,80.40
2019-01-27T10:19:59.833Z,80.30
2019-01-27T10:23:00.445Z,81.10
2019-01-27T10:25:49.953Z,80.10
2019-01-27T10:28:37.229Z,80.00
2019-01-27T10:31:30.395Z,80.00
2019-01-27T10:34:19.203Z,79.90
2019-01-27T10:36:56.893Z,79.90
2019-01-27T10:39:35.255Z,79.60
2019-01-27T10:42:14.789Z,79.40
2019-01-27T10:45:05.508Z,79.40
2019-01-27T10:47:41.290Z,79.20
2019-01-27T10:50:15.346Z,79.20
2019-01-27T10:52:50.095Z,70.00
2019-01-27T10:55:21.669Z,73.40
2019-01-27T10:57:55.950Z,74.00
2019-01-27T11:00:24.239Z,74.50
2019-01-27T11:03:02.188Z,75.00
2019-01-27T11:05:33.368Z,75.40
2019-01-27T11:08:13.963Z,75.50
2019-01-27T11:10:48.272Z,75.60
2019-01-27T11:13:19.997Z,75.80
2019-01-27T11:15:54.328Z,77.30
2019-01-27T11:18:22.500Z,77.40
2019-01-27T11:21:07.490Z,77.90
2019-01-27T11:23:35.787Z,78.10
2019-01-27T11:26:20.755Z,78.30
2019-01-27T11:29:01.212Z,78.50
2019-01-27T11:31:46.610Z,78.60
2019-01-27T11:34:20.893Z,78.70
2019-01-27T11:36:49.466Z,78.70
2019-01-27T11:39:26.937Z,79.10
2019-01-27T11:42:13.284Z,79.20
2019-01-27T11:44:57.341Z,79.20
2019-01-27T11:47:42.386Z,79.10
2019-01-27T11:50:15.116Z,79.00
2019-01-27T11:52:42.664Z,79.10
2019-01-27T11:55:09.367Z,79.20
2019-01-27T11:57:35.904Z,79.20
2019-01-27T12:00:05.213Z,79.40
2019-01-27T12:02:32.176Z,79.40
2019-01-27T12:04:58.653Z,79.20
2019-01-27T12:07:25.454Z,79.20
2019-01-27T12:09:52.107Z,79.20
2019-01-27T12:12:18.634Z,80.00
2019-01-27T12:14:45.329Z,80.00
2019-01-27T12:17:11.732Z,79.50
2019-01-27T12:19:40.288Z,79.40
2019-01-27T12:22:06.364Z,74.90
2019-01-27T12:24:32.906Z,76.00
2019-01-27T12:26:59.767Z,76.30
2019-01-27T12:29:26.133Z,76.50
2019-01-27T12:31:53.193Z,76.70
2019-01-27T12:34:19.499Z,76.70
2019-01-27T12:36:46.024Z,76.90
2019-01-27T12:39:12.551Z,77.00
2019-01-27T12:41:39.381Z,77.30
2019-01-27T12:44:05.837Z,77.30
2019-01-27T12:46:32.130Z,77.30
2019-01-27T12:48:58.431Z,77.30
2019-01-27T12:51:25.090Z,77.40
2019-01-27T12:53:51.629Z,77.50
2019-01-27T12:56:18.300Z,77.60
2019-01-27T12:58:44.974Z,77.50
2019-01-27T13:01:11.454Z,78.10
2019-01-27T13:03:37.889Z,77.70
2019-01-27T13:06:04.407Z,77.70
2019-01-27T13:08:33.009Z,78.60
2019-01-27T13:10:59.810Z,78.60
2019-01-27T13:13:26.106Z,79.10
2019-01-27T13:15:52.744Z,79.40
2019-01-27T13:18:19.649Z,78.80
2019-01-27T13:20:46.323Z,78.70
2019-01-27T13:23:13.226Z,78.80
2019-01-27T13:25:39.852Z,78.80
2019-01-27T13:28:06.390Z,78.70
2019-01-27T13:30:33.010Z,78.70
2019-01-27T13:33:03.242Z,78.80
2019-01-27T13:35:28.016Z,78.90
2019-01-27T13:37:54.531Z,79.00
2019-01-27T13:40:22.805Z,78.90
2019-01-27T13:42:49.360Z,79.10
2019-01-27T13:45:19.394Z,79.10
2019-01-27T13:47:45.910Z,79.20
2019-01-27T13:50:14.337Z,79.20
2019-01-27T13:52:41.741Z,79.20
2019-01-27T13:55:17.221Z,79.30
2019-01-27T13:57:43.943Z,79.20
2019-01-27T14:00:16.378Z,79.10
2019-01-27T14:02:42.924Z,79.20
2019-01-27T14:05:09.787Z,79.10
2019-01-27T14:07:36.306Z,79.20
2019-01-27T14:10:06.447Z,79.10
2019-01-27T14:12:32.975Z,79.10
2019-01-27T14:14:59.392Z,79.20
2019-01-27T14:17:25.968Z,79.10
2019-01-27T14:19:52.498Z,79.20
2019-01-27T14:22:19.040Z,79.10
2019-01-27T14:24:45.563Z,79.20
2019-01-27T14:27:12.084Z,79.00
2019-01-27T14:29:38.650Z,79.20
2019-01-27T14:32:04.940Z,79.10
2019-01-27T14:34:31.604Z,79.20
2019-01-27T14:36:58.238Z,79.10
2019-01-27T14:39:24.855Z,79.10
2019-01-27T14:41:51.376Z,79.00
2019-01-27T14:44:18.062Z,79.10
2019-01-27T14:46:47.291Z,79.10
2019-01-27T14:49:13.601Z,80.20
2019-01-27T14:51:40.024Z,80.00
2019-01-27T14:54:06.565Z,79.40
2019-01-27T14:56:33.080Z,79.20
2019-01-27T14:58:59.762Z,79.10
2019-01-27T15:01:26.394Z,79.10
2019-01-27T15:03:53.148Z,78.90
2019-01-27T15:06:19.688Z,79.10
2019-01-27T15:08:46.235Z,79.10
2019-01-27T15:11:12.899Z,79.70
2019-01-27T15:13:39.716Z,79.20
2019-01-27T15:16:06.636Z,79.10
2019-01-27T15:18:33.056Z,79.10
2019-01-27T15:20:59.559Z,79.10
2019-01-27T15:23:25.985Z,79.70
2019-01-27T15:25:52.390Z,79.20
2019-01-27T15:28:18.689Z,79.40
2019-01-27T15:30:44.993Z,79.60
2019-01-27T15:33:11.645Z,79.30
2019-01-27T15:35:38.143Z,79.10
2019-01-27T15:38:04.802Z,79.20
2019-01-27T15:40:31.312Z,80.10
2019-01-27T15:42:57.890Z,79.30
2019-01-27T15:45:29.633Z,78.90
2019-01-27T15:47:56.042Z,78.40
2019-01-27T15:50:25.184Z,80.00
2019-01-27T15:52:51.484Z,78.00
2019-01-27T15:55:18.884Z,79.10
2019-01-27T15:57:46.116Z,79.20
2019-01-27T16:00:14.933Z,79.10
2019-01-27T16:02:41.348Z,71.30
2019-01-27T16:05:11.077Z,66.50
2019-01-27T16:07:37.469Z,68.00
2019-01-27T16:10:07.007Z,70.30
2019-01-27T16:12:33.518Z,71.60
2019-01-27T16:14:59.924Z,72.60
2019-01-27T16:17:26.220Z,73.00
2019-01-27T16:19:52.536Z,73.70
2019-01-27T16:22:18.972Z,74.10
2019-01-27T16:24:45.865Z,73.60
2019-01-27T16:27:12.602Z,73.70
2019-01-27T16:29:40.905Z,73.80
2019-01-27T16:32:08.619Z,74.00
2019-01-27T16:34:34.953Z,73.80
2019-01-27T16:37:01.357Z,74.10
2019-01-27T16:39:27.716Z,74.20
2019-01-27T16:41:54.130Z,74.20
2019-01-27T16:44:20.762Z,74.30
2019-01-27T16:46:47.082Z,74.40
2019-01-27T16:49:13.389Z,74.60
2019-01-27T16:51:39.824Z,74.50
2019-01-27T16:54:06.234Z,74.60
2019-01-27T16:56:32.636Z,74.60
2019-01-27T16:58:59.488Z,74.70
2019-01-27T17:01:26.382Z,74.60
2019-01-27T17:03:52.930Z,74.80
2019-01-27T17:06:19.338Z,74.80
2019-01-27T17:08:45.651Z,74.80
2019-01-27T17:11:12.285Z,75.10
2019-01-27T17:13:38.572Z,75.00
2019-01-27T17:16:04.923Z,74.90
2019-01-27T17:18:31.331Z,75.10
2019-01-27T17:20:57.844Z,75.10
2019-01-27T17:23:24.544Z,75.00
2019-01-27T17:25:53.599Z,75.00
2019-01-27T17:28:19.078Z,75.10
2019-01-27T17:30:45.480Z,75.10
2019-01-27T17:33:11.884Z,75.70
2019-01-27T17:35:42.059Z,76.70
2019-01-27T17:38:08.468Z,77.60
2019-01-27T17:40:39.754Z,77.90
2019-01-27T17:43:06.565Z,78.40
2019-01-27T17:45:33.402Z,80.60
2019-01-27T17:48:00.034Z,80.80
2019-01-27T17:50:26.617Z,80.00
2019-01-27T17:52:53.103Z,80.10
2019-01-27T17:55:41.316Z,80.00
2019-01-27T17:58:15.618Z,80.50
2019-01-27T18:00:46.565Z,80.20
2019-01-27T18:03:23.823Z,80.20
2019-01-27T18:05:52.131Z,80.20
2019-01-27T18:08:20.547Z,80.40
2019-01-27T18:10:51.656Z,80.20
2019-01-27T18:13:20.057Z,80.00
2019-01-27T18:15:46.576Z,80.30
2019-01-27T18:18:12.960Z,80.00
2019-01-27T18:20:39.408Z,77.80
2019-01-27T18:23:05.822Z,76.20
2019-01-27T18:25:32.229Z,76.60
2019-01-27T18:27:58.660Z,74.90
2019-01-27T18:30:25.168Z,74.10
2019-01-27T18:32:51.718Z,74.10
2019-01-27T18:35:18.201Z,72.50
2019-01-27T18:37:44.710Z,72.30
2019-01-27T18:40:12.263Z,72.70
2019-01-27T18:42:38.554Z,73.40
2019-01-27T18:45:11.731Z,74.00
2019-01-27T18:47:39.190Z,74.40
2019-01-27T18:50:09.289Z,74.60
2019-01-27T18:52:35.718Z,75.00
2019-01-27T18:55:04.722Z,75.20
2019-01-27T18:57:38.846Z,75.30
2019-01-27T19:00:15.045Z,75.60
2019-01-27T19:03:01.792Z,75.90
2019-01-27T19:05:38.732Z,76.00
2019-01-27T19:08:10.175Z,76.10
2019-01-27T19:10:56.462Z,76.40
2019-01-27T19:13:41.433Z,76.70
2019-01-27T19:16:12.790Z,76.60
2019-01-27T19:18:47.089Z,76.80
2019-01-27T19:21:15.322Z,76.80
2019-01-27T19:23:55.757Z,77.60
2019-01-27T19:26:26.948Z,78.30
2019-01-27T19:29:01.577Z,79.20
2019-01-27T19:31:43.517Z,80.10
2019-01-27T19:34:14.680Z,80.10
2019-01-27T19:36:52.134Z,80.40
2019-01-27T19:39:21.297Z,80.20
2019-01-27T19:41:49.508Z,79.90
2019-01-27T19:44:17.978Z,79.90
2019-01-27T19:46:56.315Z,79.90
2019-01-27T19:49:27.189Z,79.80
2019-01-27T19:52:04.267Z,79.60
2019-01-27T19:54:35.824Z,79.30
2019-01-27T19:57:22.085Z,79.40
2019-01-27T20:00:02.411Z,79.30
2019-01-27T20:02:36.593Z,79.10
2019-01-27T20:05:10.518Z,79.10
2019-01-27T20:07:38.927Z,79.10
2019-01-27T20:10:25.244Z,79.00
2019-01-27T20:12:56.154Z,78.90
2019-01-27T20:15:40.932Z,78.80
2019-01-27T20:18:09.309Z,78.80
2019-01-27T20:20:43.702Z,78.90
2019-01-27T20:23:14.621Z,78.80
2019-01-27T20:25:45.564Z,78.80
2019-01-27T20:28:14.156Z,78.80
2019-01-27T20:30:42.399Z,78.90
2019-01-27T20:33:19.384Z,78.80
2019-01-27T20:35:59.444Z,78.70
2019-01-27T20:38:30.628Z,78.70
2019-01-27T20:41:10.969Z,78.80
2019-01-27T20:43:45.166Z,79.60
2019-01-27T20:46:16.097Z,78.80
2019-01-27T20:48:53.528Z,78.90
2019-01-27T20:51:21.739Z,78.60
2019-01-27T20:53:55.949Z,78.60
2019-01-27T20:56:26.844Z,78.70
2019-01-27T20:58:55.060Z,78.60
2019-01-27T21:01:38.507Z,78.50
2019-01-27T21:04:09.872Z,78.40
2019-01-27T21:06:38.100Z,78.60
2019-01-27T21:09:12.046Z,79.60
2019-01-27T21:11:40.236Z,78.60
2019-01-27T21:14:17.496Z,78.40
2019-01-27T21:16:45.716Z,78.40
2019-01-27T21:19:13.980Z,78.40
2019-01-27T21:21:40.322Z,78.40
2019-01-27T21:24:06.695Z,78.50
2019-01-27T21:26:33.289Z,78.50
2019-01-27T21:28:59.932Z,78.20
2019-01-27T21:31:26.644Z,78.40
2019-01-27T21:33:53.257Z,78.10
2019-01-27T21:36:19.684Z,78.50
2019-01-27T21:38:46.084Z,78.80
2019-01-27T21:41:12.420Z,79.20
2019-01-27T21:43:38.730Z,79.00
2019-01-27T21:46:05.041Z,78.90
2019-01-27T21:48:31.592Z,78.70
2019-01-27T21:50:57.913Z,78.60
2019-01-27T21:53:24.357Z,78.80
2019-01-27T21:55:50.867Z,78.70
2019-01-27T21:58:17.257Z,79.00
2019-01-27T22:00:43.793Z,78.60
2019-01-27T22:03:10.215Z,78.50
2019-01-27T22:05:36.574Z,78.40
2019-01-27T22:08:03.176Z,78.10
2019-01-27T22:10:29.477Z,78.00
2019-01-27T22:12:55.985Z,77.80
2019-01-27T22:15:22.275Z,77.60
2019-01-27T22:17:48.809Z,77.60
2019-01-27T22:20:15.225Z,77.50
2019-01-27T22:22:41.826Z,77.50
2019-01-27T22:25:11.143Z,77.80
2019-01-27T22:27:37.546Z,77.80
2019-01-27T22:30:10.794Z,77.80
2019-01-27T22:32:37.193Z,77.70
2019-01-27T22:35:04.494Z,77.70
2019-01-27T22:37:30.924Z,77.80
2019-01-27T22:39:57.718Z,77.90
2019-01-27T22:42:24.368Z,77.80
2019-01-27T22:44:50.680Z,78.30
2019-01-27T22:47:17.102Z,78.30
2019-01-27T22:49:43.413Z,79.00
2019-01-27T22:52:09.820Z,78.40
2019-01-27T22:54:36.145Z,78.40
2019-01-27T22:57:02.659Z,78.30
2019-01-27T22:59:28.977Z,78.30
2019-01-27T23:01:55.301Z,78.30
2019-01-27T23:04:21.636Z,78.20
2019-01-27T23:06:48.074Z,78.30
2019-01-27T23:09:16.379Z,78.10
2019-01-27T23:11:42.994Z,78.30
2019-01-27T23:14:09.301Z,78.20
2019-01-27T23:16:35.906Z,78.30
2019-01-27T23:19:02.696Z,78.40
2019-01-27T23:21:29.097Z,78.40
2019-01-27T23:23:55.523Z,78.10
2019-01-27T23:26:22.185Z,78.20
2019-01-27T23:28:48.687Z,78.30
2019-01-27T23:31:15.133Z,78.20
2019-01-27T23:33:41.438Z,78.10
2019-01-27T23:36:07.937Z,78.20
2019-01-27T23:38:34.359Z,78.40
2019-01-27T23:41:00.763Z,78.20
2019-01-27T23:43:27.629Z,78.10
2019-01-27T23:45:53.930Z,78.20
2019-01-27T23:48:22.063Z,78.80
2019-01-27T23:50:48.656Z,78.60
2019-01-27T23:53:14.981Z,78.60
2019-01-27T23:55:41.285Z,78.80
2019-01-27T23:58:07.966Z,78.90
